METAR UND TAF INFORMATION

METAR FOR VRMM
ADDS - METARS form results

(0208 UTC 26 June 2022)
Data provider http://aviationweather.gov/metar/data/
 
Forecast for: VRMM (MALE INTL/HULULE, MV)
Text: TAF VRMM 252300Z 2600/2706 26015KT 9999 FEW017TCU BKN110
Forecast period: 0000 UTC 26 June 2022 to 0600 UTC 27 June 2022
Forecast type: FROM: standard forecast or significant change
Winds: from the W (260 degrees) at 17 MPH (15 knots; 7.7 m/s)
Visibility: 6 or more miles (10+ km)
Ceiling: 11000 feet AGL
Clouds: few clouds at 1700 feet AGL
broken clouds at 11000 feet AGL
Weather: no significant weather forecast for this period
Text: TEMPO 2600/2606 FEW018CB
Forecast period: 0000 to 0600 UTC 26 June 2022
Forecast type: TEMPORARY: The following changes expected for less than half the time period
Visibility: missing
Ceiling: at least 12,000 feet AGL
Clouds: few clouds at 1800 feet AGL
Weather: no significant weather forecast for this period

 FLUGHAFENKARTE

 RUNWAY INFORMATION
Runway 18 Runway length 10499 ft Runway width 148 ft
Runway elevation 6 ft Runway displaced threshold 328 ft Runway heading 179
Runway 36 Runway length 10499 ft Runway width 148 ft
Runway elevation 5 ft Runway displaced threshold 952 ft Runway heading 359

 AIRPORT FREQUENCIES
Type APP Name APP Frequency 119.7 MHZ
Type GND Name GND Frequency 121.6 MHZ
Type TWR Name TWR Frequency 118.1 MHZ

 AIRPORT NEAR NAVIGATION AIDS
Type NDB Name Male Frequency 252 KHZ
Type VOR-DME Name Male Frequency 114700 KHZ